createdAt,value
2018-03-16T00:02:16.402Z,88.60
2018-03-16T00:04:42.660Z,88.50
2018-03-16T00:07:09.228Z,89.10
2018-03-16T00:09:36.311Z,88.50
2018-03-16T00:12:02.559Z,88.50
2018-03-16T00:14:28.803Z,88.20
2018-03-16T00:16:55.803Z,87.80
2018-03-16T00:19:22.048Z,87.80
2018-03-16T00:21:48.299Z,87.70
2018-03-16T00:24:14.619Z,87.50
2018-03-16T00:26:41.156Z,88.10
2018-03-16T00:29:08.259Z,87.80
2018-03-16T00:31:34.501Z,87.80
2018-03-16T00:34:00.785Z,87.50
2018-03-16T00:36:27.175Z,86.90
2018-03-16T00:38:53.404Z,87.30
2018-03-16T00:41:19.688Z,87.00
2018-03-16T00:43:45.918Z,87.20
2018-03-16T00:46:12.191Z,87.20
2018-03-16T00:48:38.423Z,87.30
2018-03-16T00:51:04.700Z,87.40
2018-03-16T00:53:31.440Z,87.10
2018-03-16T00:55:57.999Z,87.10
2018-03-16T00:58:24.249Z,86.90
2018-03-16T01:00:51.251Z,87.10
2018-03-16T01:03:17.471Z,87.00
2018-03-16T01:05:43.764Z,86.90
2018-03-16T01:08:10.099Z,87.60
2018-03-16T01:10:36.345Z,87.00
2018-03-16T01:13:02.591Z,87.60
2018-03-16T01:15:28.863Z,87.00
2018-03-16T01:17:55.843Z,87.90
2018-03-16T01:20:22.855Z,87.80
2018-03-16T01:22:49.091Z,87.80
2018-03-16T01:25:16.095Z,88.60
2018-03-16T01:27:42.397Z,88.60
2018-03-16T01:30:09.528Z,88.40
2018-03-16T01:32:35.780Z,88.10
2018-03-16T01:35:02.762Z,87.50
2018-03-16T01:37:29.078Z,87.50
2018-03-16T01:39:55.782Z,87.50
2018-03-16T01:42:22.314Z,87.60
2018-03-16T01:44:49.276Z,87.90
2018-03-16T01:47:16.272Z,88.10
2018-03-16T01:49:42.615Z,88.00
2018-03-16T01:52:08.875Z,87.60
2018-03-16T01:54:35.106Z,87.60
2018-03-16T01:57:01.339Z,87.30
2018-03-16T01:59:27.596Z,87.50
2018-03-16T02:01:53.903Z,87.20
2018-03-16T02:04:20.119Z,87.50
2018-03-16T02:06:46.370Z,87.70
2018-03-16T02:09:13.338Z,87.20
2018-03-16T02:11:39.663Z,87.20
2018-03-16T02:14:05.955Z,87.20
2018-03-16T02:16:33.155Z,87.00
2018-03-16T02:18:59.411Z,86.50
2018-03-16T02:21:25.703Z,86.90
2018-03-16T02:23:52.688Z,87.20
2018-03-16T02:26:18.911Z,87.40
2018-03-16T02:28:45.249Z,87.50
2018-03-16T02:31:11.560Z,87.60
2018-03-16T02:33:37.821Z,88.00
2018-03-16T02:36:06.301Z,87.80
2018-03-16T02:38:33.259Z,87.90
2018-03-16T02:40:59.507Z,87.90
2018-03-16T02:43:25.809Z,88.10
2018-03-16T02:45:52.055Z,88.30
2018-03-16T02:48:18.647Z,88.00
2018-03-16T02:50:44.884Z,88.10
2018-03-16T02:53:11.332Z,88.20
2018-03-16T02:55:37.930Z,88.10
2018-03-16T02:58:04.241Z,88.00
2018-03-16T03:00:30.488Z,88.40
2018-03-16T03:02:58.523Z,88.60
2018-03-16T03:05:24.759Z,88.50
2018-03-16T03:07:51.004Z,88.40
2018-03-16T03:10:18.080Z,88.30
2018-03-16T03:12:44.307Z,88.70
2018-03-16T03:15:11.288Z,89.10
2018-03-16T03:17:37.855Z,89.00
2018-03-16T03:20:04.459Z,89.00
2018-03-16T03:22:30.764Z,89.20
2018-03-16T03:24:57.055Z,89.00
2018-03-16T03:27:23.315Z,89.10
2018-03-16T03:29:49.595Z,89.20
2018-03-16T03:32:16.210Z,88.90
2018-03-16T03:34:42.584Z,89.10
2018-03-16T03:37:08.860Z,89.00
2018-03-16T03:39:35.275Z,88.90
2018-03-16T03:42:01.595Z,89.10
2018-03-16T03:44:27.880Z,89.30
2018-03-16T03:46:54.585Z,89.20
2018-03-16T03:49:20.895Z,89.30
2018-03-16T03:51:47.143Z,89.10
2018-03-16T03:54:13.435Z,89.00
2018-03-16T03:56:39.683Z,88.90
2018-03-16T03:59:05.960Z,89.00
2018-03-16T04:01:33.007Z,89.00
2018-03-16T04:04:00.152Z,89.00
2018-03-16T04:06:26.439Z,89.00
2018-03-16T04:08:52.720Z,89.20
2018-03-16T04:11:19.733Z,89.10
2018-03-16T04:13:45.967Z,89.10
2018-03-16T04:16:12.225Z,88.80
2018-03-16T04:18:38.483Z,88.70
2018-03-16T04:21:05.447Z,88.80
2018-03-16T04:23:31.766Z,89.10
2018-03-16T04:25:58.030Z,89.00
2018-03-16T04:28:24.894Z,89.40
2018-03-16T04:30:51.147Z,89.20
2018-03-16T04:33:17.412Z,89.20
2018-03-16T04:35:44.143Z,89.00
2018-03-16T04:38:10.407Z,89.10
2018-03-16T04:40:37.171Z,89.00
2018-03-16T04:43:03.427Z,88.90
2018-03-16T04:45:29.695Z,88.80
2018-03-16T04:47:55.947Z,89.10
2018-03-16T04:50:22.191Z,89.30
2018-03-16T04:52:48.467Z,89.30
2018-03-16T04:55:14.751Z,89.20
2018-03-16T04:57:41.064Z,89.50
2018-03-16T05:00:07.443Z,89.60
2018-03-16T05:02:33.735Z,89.50
2018-03-16T05:05:00.080Z,89.30
2018-03-16T05:07:26.435Z,89.50
2018-03-16T05:09:52.930Z,89.50
2018-03-16T05:12:19.199Z,88.90
2018-03-16T05:14:45.699Z,88.70
2018-03-16T05:17:12.071Z,89.30
2018-03-16T05:19:39.052Z,89.20
2018-03-16T05:22:05.487Z,89.10
2018-03-16T05:24:31.749Z,89.00
2018-03-16T05:26:58.016Z,88.90
2018-03-16T05:29:24.265Z,89.00
2018-03-16T05:31:50.535Z,89.30
2018-03-16T05:34:16.786Z,89.40
2018-03-16T05:36:43.051Z,89.40
2018-03-16T05:39:09.336Z,89.30
2018-03-16T05:41:35.667Z,88.90
2018-03-16T05:44:01.999Z,88.60
2018-03-16T05:46:28.276Z,89.00
2018-03-16T05:48:54.551Z,89.40
2018-03-16T05:51:21.640Z,89.60
2018-03-16T05:53:49.043Z,89.60
2018-03-16T05:56:15.311Z,89.70
2018-03-16T05:58:41.583Z,89.50
2018-03-16T06:01:07.850Z,89.30
2018-03-16T06:03:34.115Z,89.30
2018-03-16T06:06:00.413Z,89.10
2018-03-16T06:08:26.696Z,88.80
2018-03-16T06:10:53.003Z,88.40
2018-03-16T06:13:19.260Z,88.80
2018-03-16T06:15:45.627Z,89.00
2018-03-16T06:18:11.891Z,89.00
2018-03-16T06:20:38.234Z,89.10
2018-03-16T06:23:07.517Z,89.00
2018-03-16T06:25:33.886Z,89.10
2018-03-16T06:28:00.195Z,88.90
2018-03-16T06:30:26.502Z,88.90
2018-03-16T06:32:52.746Z,89.10
2018-03-16T06:35:19.186Z,89.10
2018-03-16T06:37:45.430Z,88.80
2018-03-16T06:40:13.420Z,88.90
2018-03-16T06:42:40.317Z,89.10
2018-03-16T06:45:06.605Z,88.90
2018-03-16T06:47:33.622Z,88.30
2018-03-16T06:50:00.351Z,88.30
2018-03-16T06:52:26.627Z,88.40
2018-03-16T06:54:52.963Z,88.40
2018-03-16T06:57:19.194Z,88.70
2018-03-16T06:59:45.680Z,88.90
2018-03-16T07:02:11.959Z,89.00
2018-03-16T07:04:38.543Z,88.50
2018-03-16T07:07:05.346Z,88.70
2018-03-16T07:09:31.632Z,88.90
2018-03-16T07:11:59.803Z,88.90
2018-03-16T07:14:28.474Z,88.80
2018-03-16T07:16:55.175Z,88.80
2018-03-16T07:19:22.004Z,89.00
2018-03-16T07:21:48.258Z,89.70
2018-03-16T07:24:14.547Z,89.50
2018-03-16T07:26:40.859Z,89.20
2018-03-16T07:29:07.183Z,89.20
2018-03-16T07:31:33.607Z,88.90
2018-03-16T07:34:00.169Z,89.40
2018-03-16T07:36:29.574Z,89.60
2018-03-16T07:38:58.027Z,88.90
2018-03-16T07:41:24.299Z,88.80
2018-03-16T07:43:50.536Z,89.10
2018-03-16T07:46:16.796Z,89.00
2018-03-16T07:48:43.771Z,88.40
2018-03-16T07:51:10.373Z,88.40
2018-03-16T07:53:36.602Z,88.90
2018-03-16T07:56:02.887Z,88.10
2018-03-16T07:58:29.124Z,88.20
2018-03-16T08:00:55.399Z,87.80
2018-03-16T08:03:22.027Z,87.70
2018-03-16T08:05:48.295Z,88.20
2018-03-16T08:08:14.547Z,88.10
2018-03-16T08:10:40.827Z,88.00
2018-03-16T08:13:07.073Z,88.90
2018-03-16T08:15:34.104Z,89.70
2018-03-16T08:18:00.716Z,89.60
2018-03-16T08:20:26.953Z,89.10
2018-03-16T08:22:53.238Z,88.70
2018-03-16T08:25:20.267Z,88.90
2018-03-16T08:27:46.519Z,88.80
2018-03-16T08:30:12.760Z,89.50
2018-03-16T08:32:39.268Z,89.40
2018-03-16T08:35:08.268Z,89.00
2018-03-16T08:37:34.548Z,89.00
2018-03-16T08:40:00.772Z,89.50
2018-03-16T08:42:27.087Z,89.50
2018-03-16T08:44:53.331Z,89.50
2018-03-16T08:47:19.631Z,89.50
2018-03-16T08:49:45.878Z,89.10
2018-03-16T08:52:12.132Z,88.30
2018-03-16T08:54:38.383Z,88.40
2018-03-16T08:57:04.676Z,89.00
2018-03-16T08:59:30.987Z,88.60
2018-03-16T09:01:57.263Z,88.90
2018-03-16T09:04:23.548Z,88.00
2018-03-16T09:06:49.830Z,88.00
2018-03-16T09:09:16.055Z,87.60
2018-03-16T09:11:42.634Z,87.80
2018-03-16T09:14:08.889Z,87.20
2018-03-16T09:16:35.144Z,86.10
2018-03-16T09:19:01.431Z,86.70
2018-03-16T09:21:28.655Z,86.60
2018-03-16T09:23:54.923Z,87.70
2018-03-16T09:26:21.515Z,87.20
2018-03-16T09:28:47.808Z,87.10
2018-03-16T09:31:14.051Z,87.20
2018-03-16T09:33:40.332Z,86.90
2018-03-16T09:36:08.659Z,87.30
2018-03-16T09:38:34.928Z,87.20
2018-03-16T09:41:01.166Z,87.20
2018-03-16T09:43:27.935Z,86.90
2018-03-16T09:45:54.774Z,87.00
2018-03-16T09:48:21.101Z,86.70
2018-03-16T09:50:47.783Z,85.90
2018-03-16T09:53:25.136Z,86.70
2018-03-16T09:55:51.383Z,87.30
2018-03-16T09:58:17.655Z,87.20
2018-03-16T10:00:43.988Z,86.00
2018-03-16T10:03:10.263Z,86.80
2018-03-16T10:05:36.508Z,87.00
2018-03-16T10:08:02.876Z,87.10
2018-03-16T10:10:29.146Z,87.50
2018-03-16T10:12:55.445Z,86.70
2018-03-16T10:15:21.722Z,86.90
2018-03-16T10:17:48.004Z,86.90
2018-03-16T10:20:15.103Z,87.00
2018-03-16T10:22:41.350Z,87.00
2018-03-16T10:25:08.371Z,87.90
2018-03-16T10:27:34.703Z,87.40
2018-03-16T10:30:00.963Z,87.90
2018-03-16T10:32:27.355Z,87.00
2018-03-16T10:34:53.601Z,86.60
2018-03-16T10:37:19.872Z,87.50
2018-03-16T10:39:46.703Z,88.00
2018-03-16T10:42:13.140Z,87.10
2018-03-16T10:44:39.399Z,85.80
2018-03-16T10:47:05.657Z,86.90
2018-03-16T10:49:31.917Z,87.40
2018-03-16T10:51:58.191Z,87.00
2018-03-16T10:54:24.779Z,86.20
2018-03-16T10:56:51.055Z,86.70
2018-03-16T10:59:18.091Z,86.90
2018-03-16T11:01:50.612Z,87.50
2018-03-16T11:04:16.912Z,88.30
2018-03-16T11:06:45.782Z,86.70
2018-03-16T11:09:12.015Z,86.70
2018-03-16T11:11:38.303Z,87.30
2018-03-16T11:14:04.559Z,87.20
2018-03-16T11:16:30.816Z,85.10
2018-03-16T11:18:57.100Z,85.20
2018-03-16T11:21:23.404Z,85.00
2018-03-16T11:23:50.203Z,82.30
2018-03-16T11:26:16.547Z,83.70
2018-03-16T11:28:42.808Z,83.80
2018-03-16T11:31:09.053Z,84.10
2018-03-16T11:33:35.338Z,83.60
2018-03-16T11:36:01.571Z,82.40
2018-03-16T11:38:27.814Z,79.70
2018-03-16T11:40:54.095Z,79.50
2018-03-16T11:43:20.363Z,79.00
2018-03-16T11:45:46.623Z,80.80
2018-03-16T11:48:12.883Z,79.70
2018-03-16T11:50:39.122Z,79.90
2018-03-16T11:53:05.394Z,81.20
2018-03-16T11:55:31.685Z,82.20
2018-03-16T11:57:57.948Z,80.70
2018-03-16T12:00:24.201Z,81.70
2018-03-16T12:05:48.442Z,81.80
2018-03-16T12:08:14.786Z,81.50
2018-03-16T12:10:41.029Z,81.50
2018-03-16T12:13:07.278Z,81.60
2018-03-16T12:15:33.639Z,81.90
2018-03-16T12:17:59.963Z,82.40
2018-03-16T12:20:26.948Z,81.80
2018-03-16T12:22:53.259Z,81.80
2018-03-16T12:25:19.500Z,82.60
2018-03-16T12:27:45.859Z,84.20
2018-03-16T12:30:12.106Z,82.90
2018-03-16T12:32:38.368Z,82.60
2018-03-16T12:35:04.658Z,81.90
2018-03-16T12:37:30.914Z,82.20
2018-03-16T12:39:57.216Z,81.60
2018-03-16T12:42:23.570Z,83.00
2018-03-16T12:44:49.887Z,82.10
2018-03-16T12:47:16.139Z,83.10
2018-03-16T12:49:45.872Z,82.80
2018-03-16T12:52:13.062Z,84.40
2018-03-16T12:54:39.322Z,83.90
2018-03-16T12:57:05.650Z,86.30
2018-03-16T12:59:31.911Z,86.30
2018-03-16T13:01:58.218Z,87.40
2018-03-16T13:04:25.236Z,87.10
2018-03-16T13:06:51.503Z,87.10
2018-03-16T13:09:18.511Z,86.60
2018-03-16T13:11:44.796Z,86.80
2018-03-16T13:14:11.819Z,87.90
2018-03-16T13:16:38.081Z,87.90
2018-03-16T13:19:04.347Z,87.60
2018-03-16T13:21:30.651Z,84.50
2018-03-16T13:23:56.967Z,84.90
2018-03-16T13:26:24.070Z,85.20
2018-03-16T13:28:50.383Z,85.20
2018-03-16T13:31:17.375Z,84.30
2018-03-16T13:33:43.599Z,84.20
2018-03-16T13:36:10.443Z,83.10
2018-03-16T13:38:36.731Z,83.70
2018-03-16T13:41:02.987Z,83.50
2018-03-16T13:43:30.006Z,84.20
2018-03-16T13:45:57.227Z,85.10
2018-03-16T13:48:23.526Z,85.10
2018-03-16T13:50:51.253Z,84.50
2018-03-16T13:53:18.435Z,84.90
2018-03-16T13:55:45.755Z,84.70
2018-03-16T13:58:12.071Z,85.10
2018-03-16T14:00:38.332Z,84.90
2018-03-16T14:03:04.779Z,83.20
2018-03-16T14:05:31.043Z,84.70
2018-03-16T14:07:57.347Z,83.60
2018-03-16T14:10:24.275Z,83.60
2018-03-16T14:12:50.596Z,82.80
2018-03-16T14:15:17.052Z,84.60
2018-03-16T14:17:43.291Z,83.90
2018-03-16T14:20:09.641Z,83.10
2018-03-16T14:22:36.244Z,82.60
2018-03-16T14:25:02.991Z,83.40
2018-03-16T14:27:29.334Z,84.20
2018-03-16T14:29:56.058Z,84.50
2018-03-16T14:32:22.491Z,83.80
2018-03-16T14:34:49.112Z,82.30
2018-03-16T14:37:16.306Z,83.30
2018-03-16T14:39:42.711Z,83.70
2018-03-16T14:42:09.839Z,82.10
2018-03-16T14:44:36.116Z,82.80
2018-03-16T14:47:02.391Z,82.10
2018-03-16T14:49:28.635Z,80.90
2018-03-16T14:51:54.935Z,80.90
2018-03-16T14:54:21.903Z,82.00
2018-03-16T14:56:48.260Z,80.50
2018-03-16T14:59:15.427Z,82.90
2018-03-16T15:01:43.259Z,83.50
2018-03-16T15:04:12.152Z,83.50
2018-03-16T15:06:39.686Z,82.80
2018-03-16T15:09:09.223Z,82.70
2018-03-16T15:11:35.501Z,84.20
2018-03-16T15:14:02.499Z,83.90
2018-03-16T15:16:28.826Z,83.90
2018-03-16T15:18:57.011Z,82.90
2018-03-16T15:21:36.832Z,81.80
2018-03-16T15:24:08.231Z,81.80
2018-03-16T15:26:38.092Z,81.40
2018-03-16T15:29:04.396Z,82.60
2018-03-16T15:31:32.800Z,81.70
2018-03-16T15:34:00.676Z,81.70
2018-03-16T15:36:28.403Z,81.50
2018-03-16T15:38:55.907Z,82.40
2018-03-16T15:41:22.859Z,82.20
2018-03-16T15:43:49.515Z,83.00
2018-03-16T15:46:15.782Z,83.10
2018-03-16T15:48:42.200Z,83.70
2018-03-16T15:51:08.460Z,83.80
2018-03-16T15:53:35.475Z,84.80
2018-03-16T15:56:01.760Z,84.70
2018-03-16T15:58:28.043Z,85.40
2018-03-16T16:00:54.348Z,85.70
2018-03-16T16:03:20.614Z,85.10
2018-03-16T16:05:47.651Z,86.40
2018-03-16T16:08:14.035Z,86.30
2018-03-16T16:10:40.267Z,86.90
2018-03-16T16:13:06.519Z,86.70
2018-03-16T16:15:32.768Z,87.20
2018-03-16T16:17:59.027Z,87.80
2018-03-16T16:20:25.319Z,89.00
2018-03-16T16:22:51.584Z,88.00
2018-03-16T16:25:17.994Z,87.70
2018-03-16T16:27:44.211Z,87.90
2018-03-16T16:30:10.569Z,86.60
2018-03-16T16:32:36.875Z,86.50
2018-03-16T16:35:03.200Z,87.60
2018-03-16T16:37:29.435Z,86.30
2018-03-16T16:39:55.683Z,86.90
2018-03-16T16:42:31.208Z,87.50
2018-03-16T16:44:57.608Z,87.50
2018-03-16T16:47:35.855Z,87.10
2018-03-16T16:50:04.408Z,86.10
2018-03-16T16:52:31.395Z,87.20
2018-03-16T16:54:57.784Z,87.20
2018-03-16T16:57:23.960Z,88.40
2018-03-16T16:59:50.393Z,87.80
2018-03-16T17:02:16.696Z,87.70
2018-03-16T17:04:42.999Z,87.60
2018-03-16T17:07:09.290Z,87.50
2018-03-16T17:09:35.575Z,87.40
2018-03-16T17:12:02.587Z,87.80
2018-03-16T17:14:29.331Z,87.80
2018-03-16T17:16:56.493Z,87.00
2018-03-16T17:19:22.764Z,87.00
2018-03-16T17:21:49.083Z,87.00
2018-03-16T17:24:16.091Z,87.00
2018-03-16T17:26:42.383Z,87.00
2018-03-16T17:29:08.752Z,86.40
2018-03-16T17:31:36.003Z,86.50
2018-03-16T17:34:02.247Z,86.30
2018-03-16T17:36:28.650Z,86.00
2018-03-16T17:38:55.101Z,86.40
2018-03-16T17:41:21.551Z,86.00
2018-03-16T17:43:47.944Z,86.70
2018-03-16T17:46:14.254Z,85.10
2018-03-16T17:48:40.528Z,85.10
2018-03-16T17:51:06.886Z,85.00
2018-03-16T17:53:34.015Z,84.30
2018-03-16T17:56:00.887Z,84.60
2018-03-16T17:58:27.779Z,84.90
2018-03-16T18:00:56.860Z,84.90
2018-03-16T18:03:24.723Z,85.00
2018-03-16T18:05:52.767Z,85.00
2018-03-16T18:08:19.112Z,85.30
2018-03-16T18:10:45.376Z,86.00
2018-03-16T18:13:12.504Z,85.40
2018-03-16T18:15:38.736Z,85.40
2018-03-16T18:18:05.019Z,85.80
2018-03-16T18:20:31.425Z,85.60
2018-03-16T18:23:00.948Z,85.10
2018-03-16T18:25:28.471Z,85.00
2018-03-16T18:27:54.902Z,85.00
2018-03-16T18:30:21.163Z,85.20
2018-03-16T18:32:47.572Z,84.70
2018-03-16T18:35:13.935Z,85.50
2018-03-16T18:37:40.215Z,84.10
2018-03-16T18:40:06.683Z,84.00
2018-03-16T18:42:33.237Z,84.30
2018-03-16T18:44:59.622Z,84.30
2018-03-16T18:47:25.948Z,84.60
2018-03-16T18:49:52.202Z,85.80
2018-03-16T18:52:19.266Z,84.20
2018-03-16T18:54:45.595Z,83.90
2018-03-16T18:57:11.853Z,84.30
2018-03-16T18:59:38.627Z,84.40
2018-03-16T19:02:04.955Z,84.40
2018-03-16T19:04:31.228Z,84.10
2018-03-16T19:06:57.602Z,84.20
2018-03-16T19:09:24.674Z,85.00
2018-03-16T19:11:51.972Z,85.50
2018-03-16T19:14:18.240Z,84.70
2018-03-16T19:16:44.492Z,84.30
2018-03-16T19:19:10.887Z,84.00
2018-03-16T19:21:37.223Z,85.00
2018-03-16T19:24:03.524Z,84.20
2018-03-16T19:26:29.755Z,83.50
2018-03-16T19:28:56.059Z,83.10
2018-03-16T19:31:22.590Z,83.60
2018-03-16T19:33:48.875Z,83.40
2018-03-16T19:36:18.105Z,83.80
2018-03-16T19:38:46.545Z,83.10
2018-03-16T19:41:15.531Z,83.80
2018-03-16T19:43:42.879Z,84.20
2018-03-16T19:46:11.516Z,84.30
2018-03-16T19:48:38.039Z,84.20
2018-03-16T19:51:05.012Z,84.30
2018-03-16T19:53:31.836Z,84.40
2018-03-16T19:55:58.190Z,84.20
2018-03-16T19:58:24.676Z,84.70
2018-03-16T20:00:52.770Z,84.90
2018-03-16T20:03:19.084Z,84.40
2018-03-16T20:05:45.370Z,84.70
2018-03-16T20:08:11.609Z,84.00
2018-03-16T20:10:38.095Z,84.60
2018-03-16T20:13:05.074Z,84.70
2018-03-16T20:15:32.153Z,84.00
2018-03-16T20:17:58.395Z,84.00
2018-03-16T20:20:25.088Z,84.40
2018-03-16T20:22:51.339Z,84.60
2018-03-16T20:25:17.723Z,84.80
2018-03-16T20:27:44.967Z,84.30
2018-03-16T20:30:12.061Z,83.80
2018-03-16T20:32:38.683Z,83.80
2018-03-16T20:35:04.973Z,83.70
2018-03-16T20:37:31.238Z,83.80
2018-03-16T20:39:57.596Z,83.30
2018-03-16T20:42:23.948Z,82.40
2018-03-16T20:44:51.432Z,82.50
2018-03-16T20:47:17.785Z,82.50
2018-03-16T20:49:44.107Z,83.00
2018-03-16T20:52:10.487Z,84.00
2018-03-16T20:54:36.742Z,83.70
2018-03-16T20:57:03.156Z,83.60
2018-03-16T20:59:29.400Z,83.40
2018-03-16T21:01:55.712Z,84.20
2018-03-16T21:04:21.934Z,83.20
2018-03-16T21:06:48.376Z,83.60
2018-03-16T21:09:14.623Z,82.70
2018-03-16T21:11:41.051Z,83.00
2018-03-16T21:14:18.064Z,82.00
2018-03-16T21:16:44.940Z,83.00
2018-03-16T21:19:11.936Z,83.50
2018-03-16T21:21:38.934Z,82.90
2018-03-16T21:24:05.990Z,84.10
2018-03-16T21:26:33.104Z,84.10
2018-03-16T21:29:00.136Z,82.60
2018-03-16T21:31:27.365Z,83.60
2018-03-16T21:33:53.943Z,83.50
2018-03-16T21:36:21.124Z,83.40
2018-03-16T21:38:47.616Z,83.80
2018-03-16T21:41:14.200Z,83.50
2018-03-16T21:43:40.483Z,83.20
2018-03-16T21:46:06.774Z,84.10
2018-03-16T21:48:35.079Z,83.60
2018-03-16T21:51:01.345Z,82.80
2018-03-16T21:53:27.734Z,82.60
2018-03-16T21:55:54.143Z,82.90
2018-03-16T21:58:20.407Z,83.60
2018-03-16T22:00:47.793Z,83.10
2018-03-16T22:03:14.053Z,82.50
2018-03-16T22:05:40.370Z,83.60
2018-03-16T22:08:06.643Z,83.60
2018-03-16T22:10:32.874Z,83.30
2018-03-16T22:13:00.977Z,83.80
2018-03-16T22:15:28.363Z,85.10
2018-03-16T22:17:54.661Z,83.70
2018-03-16T22:20:20.972Z,83.60
2018-03-16T22:22:47.999Z,83.30
2018-03-16T22:25:14.468Z,83.10
2018-03-16T22:27:47.635Z,83.50
2018-03-16T22:30:14.038Z,84.50
2018-03-16T22:32:40.516Z,85.50
2018-03-16T22:35:06.761Z,85.70
2018-03-16T22:37:33.820Z,86.30
2018-03-16T22:40:00.056Z,86.20
2018-03-16T22:44:59.724Z,86.70
2018-03-16T22:47:26.266Z,86.70
2018-03-16T22:49:52.648Z,87.10
2018-03-16T22:52:19.181Z,86.90
2018-03-16T22:54:46.178Z,86.90
2018-03-16T22:57:13.899Z,87.40
2018-03-16T22:59:40.575Z,86.10
2018-03-16T23:02:06.883Z,85.90
2018-03-16T23:04:33.313Z,84.80
2018-03-16T23:06:59.730Z,85.40
2018-03-16T23:09:26.111Z,84.70
2018-03-16T23:11:53.429Z,84.80
2018-03-16T23:14:19.803Z,84.80
2018-03-16T23:16:46.067Z,84.70
2018-03-16T23:19:12.552Z,84.80
2018-03-16T23:21:39.396Z,85.10
2018-03-16T23:24:06.116Z,85.00
2018-03-16T23:26:32.535Z,85.40
2018-03-16T23:28:58.867Z,84.70
2018-03-16T23:31:25.471Z,85.30
2018-03-16T23:33:51.756Z,84.90
2018-03-16T23:36:18.396Z,85.00
2018-03-16T23:38:45.079Z,85.20
2018-03-16T23:41:11.443Z,85.20
2018-03-16T23:43:37.695Z,85.50
2018-03-16T23:46:04.686Z,85.30
2018-03-16T23:48:31.044Z,85.20
2018-03-16T23:50:57.326Z,84.40
2018-03-16T23:53:23.572Z,84.80
2018-03-16T23:55:49.857Z,84.40
2018-03-16T23:58:16.089Z,84.40
